createdAt,value
2023-05-12T00:03:55.258Z,213776.00
2023-05-12T00:09:57.725Z,213762.00
2023-05-12T00:16:00.334Z,213748.00
2023-05-12T00:22:03.219Z,213734.00
2023-05-12T00:28:05.833Z,213700.00
2023-05-12T00:34:08.140Z,213645.00
2023-05-12T00:40:10.577Z,213611.00
2023-05-12T00:46:13.005Z,213575.00
2023-05-12T00:52:15.336Z,213547.00
2023-05-12T00:58:17.527Z,213561.00
2023-05-12T01:04:19.860Z,213523.00
2023-05-12T01:10:22.651Z,213473.00
2023-05-12T01:16:32.568Z,213419.00
2023-05-12T01:22:36.235Z,213439.00
2023-05-12T01:28:41.440Z,213417.00
2023-05-12T01:34:44.578Z,213431.00
2023-05-12T01:40:47.429Z,213404.00
2023-05-12T01:46:50.922Z,213328.00
2023-05-12T01:52:53.282Z,213322.00
2023-05-12T01:58:56.155Z,213272.00
2023-05-12T02:04:58.639Z,213254.00
2023-05-12T02:11:08.293Z,213220.00
2023-05-12T02:17:11.140Z,213198.00
2023-05-12T02:23:13.531Z,213184.00
2023-05-12T02:29:15.933Z,213158.00
2023-05-12T02:35:18.464Z,213117.00
2023-05-12T02:41:20.713Z,213103.00
2023-05-12T02:47:23.238Z,213117.00
2023-05-12T02:53:27.343Z,213137.00
2023-05-12T02:59:30.868Z,213198.00
2023-05-12T03:05:33.228Z,213292.00
2023-05-12T03:11:35.784Z,213278.00
2023-05-12T03:17:38.524Z,213328.00
2023-05-12T03:23:41.325Z,213378.00
2023-05-12T03:29:43.582Z,213419.00
2023-05-12T03:35:46.239Z,213467.00
2023-05-12T03:41:48.667Z,213575.00
2023-05-12T03:47:50.945Z,213561.00
2023-05-12T03:53:53.376Z,213645.00
2023-05-12T03:59:55.985Z,213811.00
2023-05-12T04:06:01.603Z,213864.00
2023-05-12T04:12:04.152Z,213956.00
2023-05-12T04:18:06.532Z,214011.00
2023-05-12T04:24:09.087Z,214169.00
2023-05-12T04:30:13.569Z,214398.00
2023-05-12T04:36:18.232Z,214523.00
2023-05-12T04:42:21.034Z,214446.00
2023-05-12T04:48:23.538Z,214545.00
2023-05-12T04:54:25.911Z,214626.00
2023-05-12T05:00:29.483Z,214787.00
2023-05-12T05:06:32.186Z,215024.00
2023-05-12T05:12:36.041Z,215058.00
2023-05-12T05:18:38.695Z,215066.00
2023-05-12T05:24:41.061Z,215261.00
2023-05-12T05:30:43.325Z,215441.00
2023-05-12T05:36:46.653Z,215615.00
2023-05-12T05:42:49.129Z,215728.00
2023-05-12T05:48:51.662Z,216070.00
2023-05-12T05:54:54.750Z,216210.00
2023-05-12T06:01:00.593Z,216246.00
2023-05-12T06:07:03.055Z,216563.00
2023-05-12T06:13:05.417Z,216647.00
2023-05-12T06:19:08.377Z,216882.00
2023-05-12T06:25:11.625Z,216956.00
2023-05-12T06:31:13.938Z,217044.00
2023-05-12T06:37:16.297Z,216840.00
2023-05-12T06:43:18.528Z,216860.00
2023-05-12T06:49:21.301Z,216928.00
2023-05-12T06:55:24.286Z,217022.00
2023-05-12T07:01:30.415Z,217071.00
2023-05-12T07:07:32.709Z,217447.00
2023-05-12T07:13:35.283Z,217439.00
2023-05-12T07:19:40.091Z,217370.00
2023-05-12T07:25:42.479Z,217313.00
2023-05-12T07:31:44.883Z,217461.00
2023-05-12T07:37:47.136Z,217475.00
2023-05-12T07:43:49.228Z,217461.00
2023-05-12T07:49:51.487Z,217518.00
2023-05-12T07:55:53.759Z,217724.00
2023-05-12T08:01:55.940Z,217935.00
2023-05-12T08:07:58.292Z,217951.00
2023-05-12T08:14:01.066Z,217787.00
2023-05-12T08:20:07.216Z,218023.00
2023-05-12T08:26:09.460Z,218058.00
2023-05-12T08:32:12.212Z,217881.00
2023-05-12T08:38:14.430Z,217903.00
2023-05-12T08:44:18.925Z,217951.00
2023-05-12T08:50:23.221Z,218138.00
2023-05-12T09:02:44.761Z,218359.00
2023-05-12T09:08:51.677Z,218521.00
2023-05-12T09:15:05.545Z,218431.00
2023-05-12T09:21:07.931Z,218674.00
2023-05-12T09:27:11.155Z,218953.00
2023-05-12T09:33:14.350Z,219141.00
2023-05-12T09:39:18.368Z,219239.00
2023-05-12T09:45:21.255Z,219630.00
2023-05-12T09:51:24.703Z,219711.00
2023-05-12T09:57:27.687Z,219752.00
2023-05-12T10:03:31.145Z,219624.00
2023-05-12T10:09:35.532Z,219357.00
2023-05-12T10:15:38.088Z,219155.00
2023-05-12T10:21:41.392Z,219097.00
2023-05-12T10:27:44.789Z,219233.00
2023-05-12T10:34:00.253Z,219062.00
2023-05-12T10:40:05.316Z,218854.00
2023-05-12T10:46:13.216Z,218715.00
2023-05-12T10:52:20.664Z,218904.00
2023-05-12T10:58:23.106Z,218759.00
2023-05-12T11:04:36.832Z,218553.00
2023-05-12T11:10:41.670Z,218609.00
2023-05-12T11:16:47.162Z,218682.00
2023-05-12T11:22:49.601Z,219062.00
2023-05-12T11:28:51.864Z,219263.00
2023-05-12T11:34:54.175Z,219239.00
2023-05-12T11:40:56.536Z,219291.00
2023-05-12T11:47:12.849Z,219220.00
2023-05-12T11:53:19.063Z,218961.00
2023-05-12T11:59:33.125Z,218788.00
2023-05-12T12:05:35.629Z,218660.00
2023-05-12T12:11:37.809Z,218832.00
2023-05-12T12:17:40.846Z,219032.00
2023-05-12T12:23:50.987Z,219163.00
2023-05-12T12:29:54.340Z,219133.00
2023-05-12T12:35:56.543Z,219133.00
2023-05-12T12:41:59.299Z,219010.00
2023-05-12T12:48:01.725Z,219141.00
2023-05-12T12:54:04.069Z,219119.00
2023-05-12T13:00:08.971Z,219291.00
2023-05-12T13:06:11.379Z,219291.00
2023-05-12T13:12:13.813Z,219305.00
2023-05-12T13:18:16.254Z,219261.00
2023-05-12T13:24:18.808Z,219291.00
2023-05-12T13:30:22.925Z,219247.00
2023-05-12T13:36:25.278Z,219177.00
2023-05-12T13:42:27.731Z,219247.00
2023-05-12T13:48:29.914Z,219163.00
2023-05-12T13:54:32.329Z,219277.00
2023-05-12T14:00:34.598Z,219357.00
2023-05-12T14:06:36.771Z,219357.00
2023-05-12T14:12:39.349Z,219269.00
2023-05-12T14:18:43.475Z,219205.00
2023-05-12T14:24:46.388Z,219269.00
2023-05-12T14:30:49.495Z,219341.00
2023-05-12T14:36:51.676Z,219422.00
2023-05-12T14:42:54.484Z,219319.00
2023-05-12T14:48:56.694Z,219083.00
2023-05-12T14:54:58.938Z,219083.00
2023-05-12T15:01:02.951Z,218920.00
2023-05-12T15:07:06.381Z,218882.00
2023-05-12T15:13:08.559Z,218890.00
2023-05-12T15:19:10.867Z,218953.00
2023-05-12T15:25:13.362Z,218846.00
2023-05-12T15:31:16.013Z,218816.00
2023-05-12T15:37:18.538Z,218652.00
2023-05-12T15:43:20.709Z,218696.00
2023-05-12T15:49:22.830Z,218668.00
2023-05-12T15:55:25.118Z,218567.00
2023-05-12T16:01:27.573Z,218488.00
2023-05-12T16:07:31.443Z,218472.00
2023-05-12T16:13:33.696Z,218387.00
2023-05-12T16:19:36.275Z,218296.00
2023-05-12T16:25:38.706Z,218258.00
2023-05-12T16:31:41.151Z,218214.00
2023-05-12T16:37:43.625Z,218160.00
2023-05-12T16:43:46.710Z,218116.00
2023-05-12T16:49:55.350Z,218066.00
2023-05-12T16:55:58.352Z,218037.00
2023-05-12T17:02:00.695Z,218009.00
2023-05-12T17:08:03.014Z,217979.00
2023-05-12T17:14:05.185Z,217924.00
2023-05-12T17:20:08.288Z,217867.00
2023-05-12T17:26:10.953Z,217853.00
2023-05-12T17:32:13.539Z,217795.00
2023-05-12T17:38:17.187Z,217760.00
2023-05-12T17:44:19.427Z,217730.00
2023-05-12T17:50:21.938Z,217708.00
2023-05-12T17:56:24.973Z,217702.00
2023-05-12T18:02:27.152Z,217659.00
2023-05-12T18:08:29.363Z,217610.00
2023-05-12T18:14:31.409Z,217574.00
2023-05-12T18:20:33.855Z,217538.00
2023-05-12T18:26:36.490Z,217504.00
2023-05-12T18:32:38.871Z,217488.00
2023-05-12T18:38:41.289Z,217482.00
2023-05-12T18:44:43.601Z,217447.00
2023-05-12T18:50:45.935Z,217419.00
2023-05-12T18:56:48.401Z,217392.00
2023-05-12T19:02:50.675Z,217370.00
2023-05-12T19:08:52.769Z,217348.00
2023-05-12T19:14:54.915Z,217340.00
2023-05-12T19:20:57.144Z,217305.00
2023-05-12T19:26:59.853Z,217277.00
2023-05-12T19:33:02.470Z,217271.00
2023-05-12T19:39:04.883Z,217249.00
2023-05-12T19:45:07.404Z,217221.00
2023-05-12T19:51:09.823Z,217205.00
2023-05-12T19:57:12.028Z,217178.00
2023-05-12T20:03:14.687Z,217176.00
2023-05-12T20:09:17.146Z,217143.00
2023-05-12T20:15:19.294Z,217113.00
2023-05-12T20:21:21.915Z,217071.00
2023-05-12T20:27:24.150Z,217044.00
2023-05-12T20:33:27.045Z,217030.00
2023-05-12T20:39:29.280Z,216986.00
2023-05-12T20:45:31.525Z,216964.00
2023-05-12T20:51:33.773Z,216942.00
2023-05-12T20:57:36.198Z,216908.00
2023-05-12T21:03:38.495Z,216874.00
2023-05-12T21:09:40.820Z,216846.00
2023-05-12T21:15:43.161Z,216816.00
2023-05-12T21:21:45.497Z,216788.00
2023-05-12T21:27:48.281Z,216761.00
2023-05-12T21:33:50.808Z,216691.00
2023-05-12T21:39:53.035Z,216620.00
2023-05-12T21:45:55.384Z,216563.00
2023-05-12T21:51:57.768Z,216521.00
2023-05-12T21:57:59.895Z,216485.00
2023-05-12T22:04:02.403Z,216450.00
2023-05-12T22:10:05.958Z,216414.00
2023-05-12T22:16:08.372Z,216367.00
2023-05-12T22:22:10.724Z,216339.00
2023-05-12T22:28:13.021Z,216339.00
2023-05-12T22:34:15.510Z,216302.00
2023-05-12T22:40:17.641Z,216183.00
2023-05-12T22:46:20.116Z,216086.00
2023-05-12T22:52:22.374Z,215965.00
2023-05-12T22:58:24.511Z,215866.00
2023-05-12T23:04:26.819Z,215756.00
2023-05-12T23:10:29.272Z,215700.00
2023-05-12T23:16:31.491Z,215656.00
2023-05-12T23:22:34.229Z,215623.00
2023-05-12T23:28:36.725Z,215552.00
2023-05-12T23:34:40.802Z,215449.00
2023-05-12T23:40:42.971Z,215355.00
2023-05-12T23:46:45.207Z,215273.00
2023-05-12T23:52:47.647Z,215261.00
2023-05-12T23:58:49.940Z,215239.00
